sensor_id;sensor_type;location;lat;lon;timestamp;pressure;altitude;pressure_sealevel;temperature;humidity
3664;BME280;1848;51.042;7.066;2022-09-12T00:01:28;100465.31;;;13.49;100.00
3664;BME280;1848;51.042;7.066;2022-09-12T00:03:58;100453.50;;;13.43;100.00
3664;BME280;1848;51.042;7.066;2022-09-12T00:06:30;100465.69;;;13.39;100.00
3664;BME280;1848;51.042;7.066;2022-09-12T00:09:00;100464.25;;;13.37;100.00
3664;BME280;1848;51.042;7.066;2022-09-12T00:11:27;100457.63;;;13.32;100.00
3664;BME280;1848;51.042;7.066;2022-09-12T00:13:56;100464.66;;;13.33;100.00
3664;BME280;1848;51.042;7.066;2022-09-12T00:16:25;100453.31;;;13.31;100.00
3664;BME280;1848;51.042;7.066;2022-09-12T00:18:52;100447.47;;;13.28;100.00
3664;BME280;1848;51.042;7.066;2022-09-12T00:21:20;100445.41;;;13.30;100.00
3664;BME280;1848;51.042;7.066;2022-09-12T00:23:47;100448.94;;;13.30;100.00
3664;BME280;1848;51.042;7.066;2022-09-12T00:26:14;100446.44;;;13.29;100.00
3664;BME280;1848;51.042;7.066;2022-09-12T00:28:42;100442.31;;;13.26;100.00
3664;BME280;1848;51.042;7.066;2022-09-12T00:31:15;100448.72;;;13.25;100.00
3664;BME280;1848;51.042;7.066;2022-09-12T00:33:43;100444.78;;;13.21;100.00
3664;BME280;1848;51.042;7.066;2022-09-12T00:36:15;100440.03;;;13.17;100.00
3664;BME280;1848;51.042;7.066;2022-09-12T00:38:42;100444.16;;;13.12;100.00
3664;BME280;1848;51.042;7.066;2022-09-12T00:41:16;100449.72;;;13.04;100.00
3664;BME280;1848;51.042;7.066;2022-09-12T00:43:52;100443.72;;;12.95;100.00
3664;BME280;1848;51.042;7.066;2022-09-12T00:46:33;100443.28;;;12.85;100.00
3664;BME280;1848;51.042;7.066;2022-09-12T00:49:25;100443.25;;;12.78;100.00
3664;BME280;1848;51.042;7.066;2022-09-12T00:51:57;100440.16;;;12.75;100.00
3664;BME280;1848;51.042;7.066;2022-09-12T00:54:30;100433.31;;;12.72;100.00
3664;BME280;1848;51.042;7.066;2022-09-12T00:57:01;100435.56;;;12.69;100.00
3664;BME280;1848;51.042;7.066;2022-09-12T00:59:33;100434.13;;;12.66;100.00
3664;BME280;1848;51.042;7.066;2022-09-12T01:02:03;100433.72;;;12.63;100.00
3664;BME280;1848;51.042;7.066;2022-09-12T01:04:30;100426.88;;;12.60;100.00
3664;BME280;1848;51.042;7.066;2022-09-12T01:06:57;100431.63;;;12.58;100.00
3664;BME280;1848;51.042;7.066;2022-09-12T01:09:24;100431.59;;;12.51;100.00
3664;BME280;1848;51.042;7.066;2022-09-12T01:11:51;100428.91;;;12.51;100.00
3664;BME280;1848;51.042;7.066;2022-09-12T01:14:18;100441.31;;;12.52;100.00
3664;BME280;1848;51.042;7.066;2022-09-12T01:16:46;100447.69;;;12.51;100.00
3664;BME280;1848;51.042;7.066;2022-09-12T01:25:03;100432.00;;;12.48;100.00
3664;BME280;1848;51.042;7.066;2022-09-12T01:30:44;100432.63;;;12.44;100.00
3664;BME280;1848;51.042;7.066;2022-09-12T01:33:33;100425.78;;;12.41;100.00
3664;BME280;1848;51.042;7.066;2022-09-12T01:36:17;100424.13;;;12.40;100.00
3664;BME280;1848;51.042;7.066;2022-09-12T01:38:53;100427.22;;;12.37;100.00
3664;BME280;1848;51.042;7.066;2022-09-12T01:41:42;100424.09;;;12.33;100.00
3664;BME280;1848;51.042;7.066;2022-09-12T01:44:38;100429.28;;;12.35;100.00
3664;BME280;1848;51.042;7.066;2022-09-12T01:47:19;100420.00;;;12.37;100.00
3664;BME280;1848;51.042;7.066;2022-09-12T01:49:58;100331.66;;;11.81;100.00
3664;BME280;1848;51.042;7.066;2022-09-12T01:52:59;100414.81;;;12.36;100.00
3664;BME280;1848;51.042;7.066;2022-09-12T01:55:29;100412.75;;;12.38;100.00
3664;BME280;1848;51.042;7.066;2022-09-12T01:58:29;100415.44;;;12.38;100.00
3664;BME280;1848;51.042;7.066;2022-09-12T02:01:09;100409.69;;;12.41;100.00
3664;BME280;1848;51.042;7.066;2022-09-12T02:03:45;100400.63;;;12.42;100.00
3664;BME280;1848;51.042;7.066;2022-09-12T02:06:18;100357.81;;;12.14;100.00
3664;BME280;1848;51.042;7.066;2022-09-12T02:08:53;100398.56;;;12.44;100.00
3664;BME280;1848;51.042;7.066;2022-09-12T02:11:21;100394.84;;;12.45;100.00
3664;BME280;1848;51.042;7.066;2022-09-12T02:14:06;100392.16;;;12.45;100.00
3664;BME280;1848;51.042;7.066;2022-09-12T02:16:38;100400.84;;;12.47;100.00
3664;BME280;1848;51.042;7.066;2022-09-12T02:19:15;100397.31;;;12.47;100.00
3664;BME280;1848;51.042;7.066;2022-09-12T02:21:54;100396.09;;;12.43;100.00
3664;BME280;1848;51.042;7.066;2022-09-12T02:24:24;100396.50;;;12.46;100.00
3664;BME280;1848;51.042;7.066;2022-09-12T02:27:05;100397.31;;;12.47;100.00
3664;BME280;1848;51.042;7.066;2022-09-12T02:29:35;100396.31;;;12.48;100.00
3664;BME280;1848;51.042;7.066;2022-09-12T02:32:11;100337.81;;;12.10;100.00
3664;BME280;1848;51.042;7.066;2022-09-12T02:38:13;100386.78;;;12.45;100.00
3664;BME280;1848;51.042;7.066;2022-09-12T02:40:14;100383.09;;;12.46;100.00
3664;BME280;1848;51.042;7.066;2022-09-12T02:42:41;100388.25;;;12.48;100.00
3664;BME280;1848;51.042;7.066;2022-09-12T02:45:07;100382.47;;;12.44;100.00
3664;BME280;1848;51.042;7.066;2022-09-12T02:47:42;100334.09;;;12.17;100.00
3664;BME280;1848;51.042;7.066;2022-09-12T02:50:11;100375.66;;;12.48;100.00
3664;BME280;1848;51.042;7.066;2022-09-12T02:52:39;100380.84;;;12.50;100.00
3664;BME280;1848;51.042;7.066;2022-09-12T02:55:06;100375.28;;;12.51;100.00
3664;BME280;1848;51.042;7.066;2022-09-12T02:57:33;100325.47;;;12.22;100.00
3664;BME280;1848;51.042;7.066;2022-09-12T03:00:00;100282.50;;;12.02;100.00
3664;BME280;1848;51.042;7.066;2022-09-12T03:03:02;100371.78;;;12.51;100.00
3664;BME280;1848;51.042;7.066;2022-09-12T03:05:39;100364.53;;;12.51;100.00
3664;BME280;1848;51.042;7.066;2022-09-12T03:08:16;100368.03;;;12.52;100.00
3664;BME280;1848;51.042;7.066;2022-09-12T03:11:14;100360.84;;;12.52;100.00
3664;BME280;1848;51.042;7.066;2022-09-12T03:16:51;100300.69;;;12.13;100.00
3664;BME280;1848;51.042;7.066;2022-09-12T03:19:34;100360.44;;;12.49;100.00
3664;BME280;1848;51.042;7.066;2022-09-12T03:22:12;100363.53;;;12.52;100.00
3664;BME280;1848;51.042;7.066;2022-09-12T03:24:53;100362.06;;;12.50;100.00
3664;BME280;1848;51.042;7.066;2022-09-12T03:27:29;100329.16;;;12.21;100.00
3664;BME280;1848;51.042;7.066;2022-09-12T03:29:58;100366.59;;;12.49;100.00
3664;BME280;1848;51.042;7.066;2022-09-12T03:32:46;100373.41;;;12.52;100.00
3664;BME280;1848;51.042;7.066;2022-09-12T03:35:14;100367.22;;;12.51;100.00
3664;BME280;1848;51.042;7.066;2022-09-12T03:37:48;100368.25;;;12.50;100.00
3664;BME280;1848;51.042;7.066;2022-09-12T03:40:15;100369.28;;;12.49;100.00
3664;BME280;1848;51.042;7.066;2022-09-12T03:42:41;100364.75;;;12.50;100.00
3664;BME280;1848;51.042;7.066;2022-09-12T03:45:09;100368.91;;;12.52;100.00
3664;BME280;1848;51.042;7.066;2022-09-12T03:47:36;100369.28;;;12.49;100.00
3664;BME280;1848;51.042;7.066;2022-09-12T03:50:03;100370.53;;;12.53;100.00
3664;BME280;1848;51.042;7.066;2022-09-12T03:52:30;100375.91;;;12.53;100.00
3664;BME280;1848;51.042;7.066;2022-09-12T03:54:56;100368.03;;;12.52;100.00
3664;BME280;1848;51.042;7.066;2022-09-12T03:57:23;100359.19;;;12.51;100.00
3664;BME280;1848;51.042;7.066;2022-09-12T03:59:49;100368.25;;;12.50;100.00
3664;BME280;1848;51.042;7.066;2022-09-12T04:02:16;100309.78;;;12.19;100.00
3664;BME280;1848;51.042;7.066;2022-09-12T04:04:43;100356.69;;;12.50;100.00
3664;BME280;1848;51.042;7.066;2022-09-12T04:07:10;100352.16;;;12.50;100.00
3664;BME280;1848;51.042;7.066;2022-09-12T04:09:36;100352.81;;;12.52;100.00
3664;BME280;1848;51.042;7.066;2022-09-12T04:12:03;100367.84;;;12.53;100.00
3664;BME280;1848;51.042;7.066;2022-09-12T04:14:29;100358.16;;;12.52;100.00
3664;BME280;1848;51.042;7.066;2022-09-12T04:16:55;100359.81;;;12.53;100.00
3664;BME280;1848;51.042;7.066;2022-09-12T04:19:22;100309.78;;;12.19;100.00
3664;BME280;1848;51.042;7.066;2022-09-12T04:21:48;100354.00;;;12.50;100.00
3664;BME280;1848;51.042;7.066;2022-09-12T04:24:15;100356.69;;;12.50;100.00
3664;BME280;1848;51.042;7.066;2022-09-12T04:26:41;100359.19;;;12.51;100.00
3664;BME280;1848;51.042;7.066;2022-09-12T04:29:10;100352.56;;;12.47;100.00
3664;BME280;1848;51.042;7.066;2022-09-12T04:31:37;100353.19;;;12.49;100.00
3664;BME280;1848;51.042;7.066;2022-09-12T04:34:04;100341.84;;;12.47;100.00
3664;BME280;1848;51.042;7.066;2022-09-12T04:36:30;100349.91;;;12.47;100.00
3664;BME280;1848;51.042;7.066;2022-09-12T04:38:59;100351.94;;;12.45;100.00
3664;BME280;1848;51.042;7.066;2022-09-12T04:41:32;100345.94;;;12.43;100.00
3664;BME280;1848;51.042;7.066;2022-09-12T04:44:02;100347.19;;;12.40;100.00
3664;BME280;1848;51.042;7.066;2022-09-12T04:46:31;100347.19;;;12.40;100.00
3664;BME280;1848;51.042;7.066;2022-09-12T04:48:57;100345.53;;;12.39;100.00
3664;BME280;1848;51.042;7.066;2022-09-12T04:51:29;100349.88;;;12.40;100.00
3664;BME280;1848;51.042;7.066;2022-09-12T04:53:58;100309.53;;;12.07;100.00
3664;BME280;1848;51.042;7.066;2022-09-12T04:56:27;100340.16;;;12.39;100.00
3664;BME280;1848;51.042;7.066;2022-09-12T04:58:56;100347.00;;;12.42;100.00
3664;BME280;1848;51.042;7.066;2022-09-12T05:01:23;100350.88;;;12.39;100.00
3664;BME280;1848;51.042;7.066;2022-09-12T05:03:51;100334.59;;;12.41;100.00
3664;BME280;1848;51.042;7.066;2022-09-12T05:06:20;100347.00;;;12.42;100.00
3664;BME280;1848;51.042;7.066;2022-09-12T05:08:48;100319.97;;;12.44;100.00
3664;BME280;1848;51.042;7.066;2022-09-12T05:11:41;100319.75;;;12.45;100.00
3664;BME280;1848;51.042;7.066;2022-09-12T05:14:28;100321.00;;;12.49;100.00
3664;BME280;1848;51.042;7.066;2022-09-12T05:16:54;100325.97;;;12.52;100.00
3664;BME280;1848;51.042;7.066;2022-09-12T05:19:25;100316.06;;;12.53;100.00
3664;BME280;1848;51.042;7.066;2022-09-12T05:21:52;100314.00;;;12.55;100.00
3664;BME280;1848;51.042;7.066;2022-09-12T05:24:18;100288.19;;;12.34;100.00
3664;BME280;1848;51.042;7.066;2022-09-12T05:26:45;100325.38;;;12.64;100.00
3664;BME280;1848;51.042;7.066;2022-09-12T05:29:11;100320.00;;;12.70;100.00
3664;BME280;1848;51.042;7.066;2022-09-12T05:31:38;100319.41;;;12.75;100.00
3664;BME280;1848;51.042;7.066;2022-09-12T05:34:04;100315.88;;;12.81;100.00
3664;BME280;1848;51.042;7.066;2022-09-12T05:36:32;100309.91;;;12.86;100.00
3664;BME280;1848;51.042;7.066;2022-09-12T05:38:59;100309.91;;;12.92;100.00
3664;BME280;1848;51.042;7.066;2022-09-12T05:41:28;100314.69;;;12.97;100.00
3664;BME280;1848;51.042;7.066;2022-09-12T05:43:57;100285.75;;;12.72;100.00
3664;BME280;1848;51.042;7.066;2022-09-12T05:46:26;100315.50;;;13.11;100.00
3664;BME280;1848;51.042;7.066;2022-09-12T05:48:54;100327.06;;;13.18;100.00
3664;BME280;1848;51.042;7.066;2022-09-12T05:51:24;100299.00;;;13.01;100.00
3664;BME280;1848;51.042;7.066;2022-09-12T05:53:56;100324.78;;;13.28;100.00
3664;BME280;1848;51.042;7.066;2022-09-12T05:56:25;100331.00;;;13.36;100.00
3664;BME280;1848;51.042;7.066;2022-09-12T05:58:57;100329.75;;;13.38;100.00
3664;BME280;1848;51.042;7.066;2022-09-12T06:01:25;100338.00;;;13.43;100.00
3664;BME280;1848;51.042;7.066;2022-09-12T06:03:54;100339.03;;;13.49;100.00
3664;BME280;1848;51.042;7.066;2022-09-12T06:06:23;100341.94;;;13.54;100.00
3664;BME280;1848;51.042;7.066;2022-09-12T06:08:51;100342.94;;;13.60;100.00
3664;BME280;1848;51.042;7.066;2022-09-12T06:11:21;100344.16;;;13.64;100.00
3664;BME280;1848;51.042;7.066;2022-09-12T06:13:48;100346.84;;;13.70;100.00
3664;BME280;1848;51.042;7.066;2022-09-12T06:16:21;100350.53;;;13.76;100.00
3664;BME280;1848;51.042;7.066;2022-09-12T06:18:53;100351.56;;;13.82;100.00
3664;BME280;1848;51.042;7.066;2022-09-12T06:21:21;100347.81;;;13.89;100.00
3664;BME280;1848;51.042;7.066;2022-09-12T06:23:49;100351.50;;;13.95;100.00
3664;BME280;1848;51.042;7.066;2022-09-12T06:26:17;100343.25;;;13.97;100.00
3664;BME280;1848;51.042;7.066;2022-09-12T06:28:46;100354.81;;;14.04;100.00
3664;BME280;1848;51.042;7.066;2022-09-12T06:31:18;100347.75;;;14.09;100.00
3664;BME280;1848;51.042;7.066;2022-09-12T06:33:50;100347.75;;;14.16;100.00
3664;BME280;1848;51.042;7.066;2022-09-12T06:36:19;100349.34;;;14.24;100.00
3664;BME280;1848;51.042;7.066;2022-09-12T06:38:48;100350.13;;;14.31;100.00
3664;BME280;1848;51.042;7.066;2022-09-12T06:41:18;100353.41;;;14.40;100.00
3664;BME280;1848;51.042;7.066;2022-09-12T06:43:44;100355.84;;;14.48;100.00
3664;BME280;1848;51.042;7.066;2022-09-12T06:46:11;100350.84;;;14.58;100.00
3664;BME280;1848;51.042;7.066;2022-09-12T06:48:38;100295.53;;;14.31;100.00
3664;BME280;1848;51.042;7.066;2022-09-12T06:51:13;100347.84;;;14.80;100.00
3664;BME280;1848;51.042;7.066;2022-09-12T06:53:40;100307.16;;;14.56;100.00
3664;BME280;1848;51.042;7.066;2022-09-12T06:56:12;100349.31;;;15.01;100.00
3664;BME280;1848;51.042;7.066;2022-09-12T06:58:40;100358.56;;;15.12;100.00
3664;BME280;1848;51.042;7.066;2022-09-12T07:01:17;100359.94;;;15.21;100.00
3664;BME280;1848;51.042;7.066;2022-09-12T07:03:50;100358.63;;;15.30;100.00
3664;BME280;1848;51.042;7.066;2022-09-12T07:06:19;100354.81;;;15.38;100.00
3664;BME280;1848;51.042;7.066;2022-09-12T07:08:46;100350.59;;;15.49;100.00
3664;BME280;1848;51.042;7.066;2022-09-12T07:11:18;100352.38;;;15.55;100.00
3664;BME280;1848;51.042;7.066;2022-09-12T07:13:47;100352.53;;;15.60;100.00
3664;BME280;1848;51.042;7.066;2022-09-12T07:16:15;100376.72;;;15.67;100.00
3664;BME280;1848;51.042;7.066;2022-09-12T07:18:52;100364.63;;;15.76;100.00
3664;BME280;1848;51.042;7.066;2022-09-12T07:21:19;100356.47;;;15.83;100.00
3664;BME280;1848;51.042;7.066;2022-09-12T07:23:46;100359.31;;;15.88;100.00
3664;BME280;1848;51.042;7.066;2022-09-12T07:26:13;100357.38;;;15.95;100.00
3664;BME280;1848;51.042;7.066;2022-09-12T07:28:40;100359.53;;;16.05;100.00
3664;BME280;1848;51.042;7.066;2022-09-12T07:31:15;100359.84;;;16.15;100.00
3664;BME280;1848;51.042;7.066;2022-09-12T07:33:42;100356.84;;;16.23;100.00
3664;BME280;1848;51.042;7.066;2022-09-12T07:36:15;100362.97;;;16.30;100.00
3664;BME280;1848;51.042;7.066;2022-09-12T07:38:42;100366.41;;;16.38;100.00
3664;BME280;1848;51.042;7.066;2022-09-12T07:41:22;100374.78;;;16.48;100.00
3664;BME280;1848;51.042;7.066;2022-09-12T07:43:53;100374.59;;;16.61;100.00
3664;BME280;1848;51.042;7.066;2022-09-12T07:46:22;100360.66;;;16.64;100.00
3664;BME280;1848;51.042;7.066;2022-09-12T07:48:50;100373.72;;;16.79;100.00
3664;BME280;1848;51.042;7.066;2022-09-12T07:51:16;100365.53;;;16.86;100.00
3664;BME280;1848;51.042;7.066;2022-09-12T07:53:44;100358.75;;;16.95;100.00
3664;BME280;1848;51.042;7.066;2022-09-12T07:56:11;100356.53;;;17.04;100.00
3664;BME280;1848;51.042;7.066;2022-09-12T07:58:39;100366.53;;;17.15;100.00
3664;BME280;1848;51.042;7.066;2022-09-12T08:01:08;100364.44;;;17.29;100.00
3664;BME280;1848;51.042;7.066;2022-09-12T08:03:36;100369.28;;;17.39;100.00
3664;BME280;1848;51.042;7.066;2022-09-12T08:08:33;100366.56;;;17.62;100.00
3664;BME280;1848;51.042;7.066;2022-09-12T08:11:01;100365.63;;;17.69;100.00
3664;BME280;1848;51.042;7.066;2022-09-12T08:13:29;100360.09;;;17.63;99.12
3664;BME280;1848;51.042;7.066;2022-09-12T08:15:57;100310.97;;;17.43;99.88
3664;BME280;1848;51.042;7.066;2022-09-12T08:18:29;100370.56;;;17.83;99.46
3664;BME280;1848;51.042;7.066;2022-09-12T08:20:57;100375.59;;;17.92;99.99
3664;BME280;1848;51.042;7.066;2022-09-12T08:23:25;100373.63;;;17.99;96.34
3664;BME280;1848;51.042;7.066;2022-09-12T08:25:59;100378.75;;;18.00;100.00
3664;BME280;1848;51.042;7.066;2022-09-12T08:28:33;100376.06;;;18.00;96.76
3664;BME280;1848;51.042;7.066;2022-09-12T08:31:00;100381.34;;;18.07;98.65
3664;BME280;1848;51.042;7.066;2022-09-12T08:33:28;100396.50;;;18.20;99.13
3664;BME280;1848;51.042;7.066;2022-09-12T08:36:12;100379.41;;;18.31;96.79
3664;BME280;1848;51.042;7.066;2022-09-12T08:38:43;100375.25;;;18.41;94.49
3664;BME280;1848;51.042;7.066;2022-09-12T08:43:57;100376.38;;;18.56;96.36
3664;BME280;1848;51.042;7.066;2022-09-12T08:46:32;100366.31;;;18.69;92.21
3664;BME280;1848;51.042;7.066;2022-09-12T08:49:01;100368.94;;;18.81;89.55
3664;BME280;1848;51.042;7.066;2022-09-12T08:51:32;100328.06;;;18.65;90.84
3664;BME280;1848;51.042;7.066;2022-09-12T08:54:01;100383.31;;;19.10;91.21
3664;BME280;1848;51.042;7.066;2022-09-12T08:56:33;100380.34;;;19.28;89.10
3664;BME280;1848;51.042;7.066;2022-09-12T08:59:01;100379.75;;;19.43;86.86
3664;BME280;1848;51.042;7.066;2022-09-12T09:01:32;100378.00;;;19.71;86.92
3664;BME280;1848;51.042;7.066;2022-09-12T09:04:23;100375.47;;;20.03;86.47
3664;BME280;1848;51.042;7.066;2022-09-12T09:07:15;100371.75;;;20.32;82.13
3664;BME280;1848;51.042;7.066;2022-09-12T09:10:16;100374.88;;;20.68;84.29
3664;BME280;1848;51.042;7.066;2022-09-12T09:13:05;100378.25;;;21.12;79.63
3664;BME280;1848;51.042;7.066;2022-09-12T09:15:43;100365.41;;;21.40;80.69
3664;BME280;1848;51.042;7.066;2022-09-12T09:18:21;100371.06;;;21.66;79.94
3664;BME280;1848;51.042;7.066;2022-09-12T09:20:55;100362.00;;;21.98;75.18
3664;BME280;1848;51.042;7.066;2022-09-12T09:23:25;100353.56;;;22.04;75.42
3664;BME280;1848;51.042;7.066;2022-09-12T09:26:19;100350.78;;;21.89;72.83
3664;BME280;1848;51.042;7.066;2022-09-12T09:28:55;100355.59;;;21.71;78.46
3664;BME280;1848;51.042;7.066;2022-09-12T09:31:24;100353.88;;;22.13;76.53
3664;BME280;1848;51.042;7.066;2022-09-12T09:33:53;100358.69;;;22.84;70.12
3664;BME280;1848;51.042;7.066;2022-09-12T09:36:30;100349.41;;;23.47;66.04
3664;BME280;1848;51.042;7.066;2022-09-12T09:39:09;100356.63;;;24.08;64.44
3664;BME280;1848;51.042;7.066;2022-09-12T09:41:46;100355.56;;;24.59;68.83
3664;BME280;1848;51.042;7.066;2022-09-12T09:44:14;100362.38;;;25.01;63.58
3664;BME280;1848;51.042;7.066;2022-09-12T09:46:41;100361.84;;;25.34;62.55
3664;BME280;1848;51.042;7.066;2022-09-12T09:49:11;100353.06;;;25.61;62.04
3664;BME280;1848;51.042;7.066;2022-09-12T09:51:40;100348.03;;;25.92;62.58
3664;BME280;1848;51.042;7.066;2022-09-12T09:56:43;100345.94;;;26.51;60.82
3664;BME280;1848;51.042;7.066;2022-09-12T09:59:31;100339.53;;;26.56;57.11
3664;BME280;1848;51.042;7.066;2022-09-12T10:04:34;100336.69;;;26.99;58.64
3664;BME280;1848;51.042;7.066;2022-09-12T10:07:16;100336.22;;;27.44;57.12
3664;BME280;1848;51.042;7.066;2022-09-12T10:10:15;100332.66;;;27.71;57.28
3664;BME280;1848;51.042;7.066;2022-09-12T10:12:42;100329.22;;;27.93;54.28
3664;BME280;1848;51.042;7.066;2022-09-12T10:15:24;100318.59;;;28.14;54.67
3664;BME280;1848;51.042;7.066;2022-09-12T10:17:54;100323.66;;;28.35;49.97
3664;BME280;1848;51.042;7.066;2022-09-12T10:20:37;100321.88;;;28.39;51.97
3664;BME280;1848;51.042;7.066;2022-09-12T10:25:46;100328.47;;;28.88;50.37
3664;BME280;1848;51.042;7.066;2022-09-12T10:28:22;100328.50;;;29.19;49.84
3664;BME280;1848;51.042;7.066;2022-09-12T10:30:53;100324.91;;;29.42;42.79
3664;BME280;1848;51.042;7.066;2022-09-12T10:33:22;100327.38;;;29.52;49.06
3664;BME280;1848;51.042;7.066;2022-09-12T10:35:51;100330.41;;;29.82;44.43
3664;BME280;1848;51.042;7.066;2022-09-12T10:38:25;100320.28;;;30.08;42.47
3664;BME280;1848;51.042;7.066;2022-09-12T10:40:56;100314.75;;;30.17;40.60
3664;BME280;1848;51.042;7.066;2022-09-12T10:43:34;100306.81;;;30.15;42.64
3664;BME280;1848;51.042;7.066;2022-09-12T10:48:48;100299.22;;;30.47;42.41
3664;BME280;1848;51.042;7.066;2022-09-12T10:53:53;100294.94;;;30.85;43.93
3664;BME280;1848;51.042;7.066;2022-09-12T10:56:38;100296.72;;;30.89;39.98
3664;BME280;1848;51.042;7.066;2022-09-12T11:04:47;100290.38;;;31.06;37.40
3664;BME280;1848;51.042;7.066;2022-09-12T11:13:19;100280.34;;;30.93;39.74
3664;BME280;1848;51.042;7.066;2022-09-12T11:18:37;100273.78;;;31.15;35.36
3664;BME280;1848;51.042;7.066;2022-09-12T11:21:33;100262.06;;;31.18;41.06
3664;BME280;1848;51.042;7.066;2022-09-12T11:24:14;100262.56;;;31.20;39.24
3664;BME280;1848;51.042;7.066;2022-09-12T11:29:56;100254.56;;;31.27;38.34
3664;BME280;1848;51.042;7.066;2022-09-12T11:38:06;100242.31;;;30.99;38.34
3664;BME280;1848;51.042;7.066;2022-09-12T11:40:52;100242.66;;;30.88;36.30
3664;BME280;1848;51.042;7.066;2022-09-12T11:43:40;100238.31;;;30.79;36.93
3664;BME280;1848;51.042;7.066;2022-09-12T11:46:18;100232.28;;;30.77;39.09
3664;BME280;1848;51.042;7.066;2022-09-12T11:49:12;100238.31;;;30.79;37.45
3664;BME280;1848;51.042;7.066;2022-09-12T11:52:05;100233.50;;;30.58;38.56
3664;BME280;1848;51.042;7.066;2022-09-12T11:54:40;100232.03;;;30.43;40.07
3664;BME280;1848;51.042;7.066;2022-09-12T12:00:04;100228.75;;;29.89;43.77
3664;BME280;1848;51.042;7.066;2022-09-12T12:02:38;100214.50;;;29.95;41.05
3664;BME280;1848;51.042;7.066;2022-09-12T12:05:21;100224.16;;;29.58;42.81
3664;BME280;1848;51.042;7.066;2022-09-12T12:07:55;100216.75;;;28.87;43.43
3664;BME280;1848;51.042;7.066;2022-09-12T12:12:59;100229.41;;;28.43;44.28
3664;BME280;1848;51.042;7.066;2022-09-12T12:15:28;100214.91;;;28.74;40.85
3664;BME280;1848;51.042;7.066;2022-09-12T12:18:16;100216.94;;;28.91;38.82
3664;BME280;1848;51.042;7.066;2022-09-12T12:20:43;100215.34;;;28.98;39.07
3664;BME280;1848;51.042;7.066;2022-09-12T12:23:26;100215.72;;;29.14;39.78
3664;BME280;1848;51.042;7.066;2022-09-12T12:25:56;100199.53;;;29.13;40.10
3664;BME280;1848;51.042;7.066;2022-09-12T12:31:09;100189.84;;;29.15;40.49
3664;BME280;1848;51.042;7.066;2022-09-12T12:36:06;100189.56;;;29.17;41.75
3664;BME280;1848;51.042;7.066;2022-09-12T12:38:34;100186.66;;;29.22;40.65
3664;BME280;1848;51.042;7.066;2022-09-12T12:41:41;100189.09;;;29.24;39.33
3664;BME280;1848;51.042;7.066;2022-09-12T12:47:22;100178.81;;;29.15;38.13
3664;BME280;1848;51.042;7.066;2022-09-12T12:49:56;100168.56;;;28.98;38.73
3664;BME280;1848;51.042;7.066;2022-09-12T12:52:28;100173.13;;;28.72;40.12
3664;BME280;1848;51.042;7.066;2022-09-12T12:54:57;100173.19;;;28.80;43.99
3664;BME280;1848;51.042;7.066;2022-09-12T12:57:44;100158.63;;;28.89;41.87
3664;BME280;1848;51.042;7.066;2022-09-12T13:02:56;100147.16;;;28.95;38.43
3664;BME280;1848;51.042;7.066;2022-09-12T13:05:26;100088.53;;;28.46;39.94
3664;BME280;1848;51.042;7.066;2022-09-12T13:08:43;100143.59;;;28.86;39.78
3664;BME280;1848;51.042;7.066;2022-09-12T13:10:52;100143.25;;;28.79;41.71
3664;BME280;1848;51.042;7.066;2022-09-12T13:13:25;100136.41;;;28.76;40.16
3664;BME280;1848;51.042;7.066;2022-09-12T13:15:53;100132.84;;;28.76;37.30
3664;BME280;1848;51.042;7.066;2022-09-12T13:18:52;100125.72;;;28.75;38.23
3664;BME280;1848;51.042;7.066;2022-09-12T13:21:19;100124.88;;;28.65;42.15
3664;BME280;1848;51.042;7.066;2022-09-12T13:26:32;100132.28;;;28.56;41.26
3664;BME280;1848;51.042;7.066;2022-09-12T13:29:09;100127.09;;;28.55;42.48
3664;BME280;1848;51.042;7.066;2022-09-12T13:31:36;100123.94;;;28.47;42.69
3664;BME280;1848;51.042;7.066;2022-09-12T13:34:06;100131.38;;;28.47;39.88
3664;BME280;1848;51.042;7.066;2022-09-12T13:37:06;100130.41;;;28.43;41.32
3664;BME280;1848;51.042;7.066;2022-09-12T13:39:50;100123.72;;;28.35;40.99
3664;BME280;1848;51.042;7.066;2022-09-12T13:42:40;100134.34;;;28.28;39.91
3664;BME280;1848;51.042;7.066;2022-09-12T13:45:18;100128.50;;;28.21;41.73
3664;BME280;1848;51.042;7.066;2022-09-12T13:47:51;100061.50;;;27.71;40.51
3664;BME280;1848;51.042;7.066;2022-09-12T13:50:26;100120.63;;;28.05;40.95
3664;BME280;1848;51.042;7.066;2022-09-12T13:52:59;100117.50;;;27.98;43.88
3664;BME280;1848;51.042;7.066;2022-09-12T13:55:32;100070.34;;;27.60;43.68
3664;BME280;1848;51.042;7.066;2022-09-12T13:58:15;100104.31;;;27.86;40.55
3664;BME280;1848;51.042;7.066;2022-09-12T14:00:42;100100.88;;;27.81;44.46
3664;BME280;1848;51.042;7.066;2022-09-12T14:03:25;100105.53;;;27.80;41.37
3664;BME280;1848;51.042;7.066;2022-09-12T14:06:11;100103.25;;;27.73;46.04
3664;BME280;1848;51.042;7.066;2022-09-12T14:08:39;100103.56;;;27.72;39.86
3664;BME280;1848;51.042;7.066;2022-09-12T14:11:08;100106.31;;;27.72;41.61
3664;BME280;1848;51.042;7.066;2022-09-12T14:13:35;100104.59;;;27.62;40.80
3664;BME280;1848;51.042;7.066;2022-09-12T14:16:04;100095.38;;;27.58;42.91
3664;BME280;1848;51.042;7.066;2022-09-12T14:18:36;100098.41;;;27.57;39.31
3664;BME280;1848;51.042;7.066;2022-09-12T14:21:16;100099.63;;;27.50;42.97
3664;BME280;1848;51.042;7.066;2022-09-12T14:23:48;100082.97;;;27.47;44.72
3664;BME280;1848;51.042;7.066;2022-09-12T14:26:15;100080.03;;;27.43;39.31
3664;BME280;1848;51.042;7.066;2022-09-12T14:28:43;100077.91;;;27.40;40.23
3664;BME280;1848;51.042;7.066;2022-09-12T14:36:21;100065.97;;;27.08;41.32
3664;BME280;1848;51.042;7.066;2022-09-12T14:38:51;100069.31;;;27.05;42.87
3664;BME280;1848;51.042;7.066;2022-09-12T14:41:59;100057.00;;;27.03;47.50
3664;BME280;1848;51.042;7.066;2022-09-12T14:44:23;100053.56;;;26.97;44.01
3664;BME280;1848;51.042;7.066;2022-09-12T14:46:50;100013.34;;;26.65;45.35
3664;BME280;1848;51.042;7.066;2022-09-12T14:49:27;100054.63;;;26.87;44.87
3664;BME280;1848;51.042;7.066;2022-09-12T14:51:58;100051.44;;;26.94;42.66
3664;BME280;1848;51.042;7.066;2022-09-12T14:57:00;100039.56;;;26.85;43.27
3664;BME280;1848;51.042;7.066;2022-09-12T14:59:35;100033.38;;;26.79;42.46